sensor_id;sensor_type;location;lat;lon;timestamp;temperature;humidity
68701;DHT22;55682;51.114;5.882;2023-06-22T00:01:54;24.18;47.79
68701;DHT22;55682;51.114;5.882;2023-06-22T00:04:20;24.12;47.91
68701;DHT22;55682;51.114;5.882;2023-06-22T00:06:45;24.06;48.12
68701;DHT22;55682;51.114;5.882;2023-06-22T00:09:11;24.03;48.28
68701;DHT22;55682;51.114;5.882;2023-06-22T00:11:37;23.97;48.49
68701;DHT22;55682;51.114;5.882;2023-06-22T00:14:03;23.90;48.76
68701;DHT22;55682;51.114;5.882;2023-06-22T00:16:30;23.88;48.86
68701;DHT22;55682;51.114;5.882;2023-06-22T00:18:56;23.79;49.15
68701;DHT22;55682;51.114;5.882;2023-06-22T00:21:26;23.71;49.27
68701;DHT22;55682;51.114;5.882;2023-06-22T00:23:52;23.65;49.55
68701;DHT22;55682;51.114;5.882;2023-06-22T00:26:17;23.64;49.75
68701;DHT22;55682;51.114;5.882;2023-06-22T00:28:43;23.67;49.83
68701;DHT22;55682;51.114;5.882;2023-06-22T00:31:09;23.69;49.83
68701;DHT22;55682;51.114;5.882;2023-06-22T00:33:34;23.70;49.92
68701;DHT22;55682;51.114;5.882;2023-06-22T00:36:05;23.71;50.08
68701;DHT22;55682;51.114;5.882;2023-06-22T00:38:31;23.72;50.21
68701;DHT22;55682;51.114;5.882;2023-06-22T00:40:57;23.67;50.48
68701;DHT22;55682;51.114;5.882;2023-06-22T00:43:22;23.56;50.93
68701;DHT22;55682;51.114;5.882;2023-06-22T00:45:48;23.50;51.38
68701;DHT22;55682;51.114;5.882;2023-06-22T00:48:16;23.40;52.07
68701;DHT22;55682;51.114;5.882;2023-06-22T00:50:42;23.34;52.30
68701;DHT22;55682;51.114;5.882;2023-06-22T00:53:09;23.35;52.61
68701;DHT22;55682;51.114;5.882;2023-06-22T00:55:41;23.38;52.86
68701;DHT22;55682;51.114;5.882;2023-06-22T00:58:18;23.34;53.23
68701;DHT22;55682;51.114;5.882;2023-06-22T01:00:48;23.32;53.56
68701;DHT22;55682;51.114;5.882;2023-06-22T01:03:14;23.32;53.88
68701;DHT22;55682;51.114;5.882;2023-06-22T01:05:42;23.32;54.25
68701;DHT22;55682;51.114;5.882;2023-06-22T01:08:31;23.25;54.71
68701;DHT22;55682;51.114;5.882;2023-06-22T01:11:16;23.24;55.00
68701;DHT22;55682;51.114;5.882;2023-06-22T01:16:41;23.01;56.62
68701;DHT22;55682;51.114;5.882;2023-06-22T01:22:24;22.96;58.19
68701;DHT22;55682;51.114;5.882;2023-06-22T01:25:13;22.94;58.43
68701;DHT22;55682;51.114;5.882;2023-06-22T01:30:30;22.94;59.00
68701;DHT22;55682;51.114;5.882;2023-06-22T01:33:01;22.91;59.19
68701;DHT22;55682;51.114;5.882;2023-06-22T01:35:29;22.93;59.27
68701;DHT22;55682;51.114;5.882;2023-06-22T01:37:55;22.93;59.41
68701;DHT22;55682;51.114;5.882;2023-06-22T01:40:21;22.95;59.63
68701;DHT22;55682;51.114;5.882;2023-06-22T01:42:48;22.93;59.79
68701;DHT22;55682;51.114;5.882;2023-06-22T01:45:16;22.91;60.00
68701;DHT22;55682;51.114;5.882;2023-06-22T01:47:42;22.90;60.30
68701;DHT22;55682;51.114;5.882;2023-06-22T01:50:09;22.85;60.51
68701;DHT22;55682;51.114;5.882;2023-06-22T01:52:35;22.83;60.71
68701;DHT22;55682;51.114;5.882;2023-06-22T01:55:01;22.82;60.94
68701;DHT22;55682;51.114;5.882;2023-06-22T01:57:27;22.84;61.06
68701;DHT22;55682;51.114;5.882;2023-06-22T02:00:00;22.86;61.20
68701;DHT22;55682;51.114;5.882;2023-06-22T02:02:33;22.90;61.31
68701;DHT22;55682;51.114;5.882;2023-06-22T02:05:06;22.86;61.54
68701;DHT22;55682;51.114;5.882;2023-06-22T02:07:44;22.85;61.74
68701;DHT22;55682;51.114;5.882;2023-06-22T02:10:14;22.82;61.92
68701;DHT22;55682;51.114;5.882;2023-06-22T02:12:43;22.77;62.09
68701;DHT22;55682;51.114;5.882;2023-06-22T02:15:10;22.77;62.18
68701;DHT22;55682;51.114;5.882;2023-06-22T02:17:36;22.78;62.33
68701;DHT22;55682;51.114;5.882;2023-06-22T02:20:03;22.77;62.47
68701;DHT22;55682;51.114;5.882;2023-06-22T02:22:35;22.81;62.57
68701;DHT22;55682;51.114;5.882;2023-06-22T02:25:01;22.84;62.48
68701;DHT22;55682;51.114;5.882;2023-06-22T02:27:28;22.88;62.57
68701;DHT22;55682;51.114;5.882;2023-06-22T02:29:53;22.92;62.49
68701;DHT22;55682;51.114;5.882;2023-06-22T02:32:19;22.92;62.57
68701;DHT22;55682;51.114;5.882;2023-06-22T02:34:46;22.94;62.65
68701;DHT22;55682;51.114;5.882;2023-06-22T02:37:15;22.93;62.84
68701;DHT22;55682;51.114;5.882;2023-06-22T02:39:41;22.90;63.01
68701;DHT22;55682;51.114;5.882;2023-06-22T02:42:07;22.87;63.24
68701;DHT22;55682;51.114;5.882;2023-06-22T02:44:33;22.83;63.50
68701;DHT22;55682;51.114;5.882;2023-06-22T02:46:59;22.75;63.88
68701;DHT22;55682;51.114;5.882;2023-06-22T02:49:25;22.70;64.11
68701;DHT22;55682;51.114;5.882;2023-06-22T02:51:50;22.67;64.28
68701;DHT22;55682;51.114;5.882;2023-06-22T02:54:19;22.66;64.37
68701;DHT22;55682;51.114;5.882;2023-06-22T02:56:47;22.63;64.53
68701;DHT22;55682;51.114;5.882;2023-06-22T02:59:13;22.54;64.82
68701;DHT22;55682;51.114;5.882;2023-06-22T03:01:39;22.50;64.98
68701;DHT22;55682;51.114;5.882;2023-06-22T03:04:24;22.44;65.31
68701;DHT22;55682;51.114;5.882;2023-06-22T03:06:50;22.40;65.37
68701;DHT22;55682;51.114;5.882;2023-06-22T03:09:16;22.35;65.61
68701;DHT22;55682;51.114;5.882;2023-06-22T03:11:42;22.28;65.89
68701;DHT22;55682;51.114;5.882;2023-06-22T03:14:08;22.26;65.95
68701;DHT22;55682;51.114;5.882;2023-06-22T03:16:34;22.23;66.16
68701;DHT22;55682;51.114;5.882;2023-06-22T03:19:00;22.21;66.30
68701;DHT22;55682;51.114;5.882;2023-06-22T03:21:29;22.18;66.47
68701;DHT22;55682;51.114;5.882;2023-06-22T03:23:55;22.17;66.62
68701;DHT22;55682;51.114;5.882;2023-06-22T03:26:21;22.14;66.72
68701;DHT22;55682;51.114;5.882;2023-06-22T03:28:47;22.16;66.75
68701;DHT22;55682;51.114;5.882;2023-06-22T03:31:13;22.14;66.85
68701;DHT22;55682;51.114;5.882;2023-06-22T03:33:40;22.20;66.81
68701;DHT22;55682;51.114;5.882;2023-06-22T03:36:05;22.27;66.62
68701;DHT22;55682;51.114;5.882;2023-06-22T03:38:32;22.38;66.37
68701;DHT22;55682;51.114;5.882;2023-06-22T03:40:58;22.46;66.12
68701;DHT22;55682;51.114;5.882;2023-06-22T03:43:24;22.52;65.95
68701;DHT22;55682;51.114;5.882;2023-06-22T03:45:50;22.55;65.85
68701;DHT22;55682;51.114;5.882;2023-06-22T03:48:16;22.52;65.98
68701;DHT22;55682;51.114;5.882;2023-06-22T03:50:41;22.53;65.97
68701;DHT22;55682;51.114;5.882;2023-06-22T03:53:09;22.58;65.92
68701;DHT22;55682;51.114;5.882;2023-06-22T03:55:36;22.64;65.78
68701;DHT22;55682;51.114;5.882;2023-06-22T03:58:02;22.65;65.95
68701;DHT22;55682;51.114;5.882;2023-06-22T04:00:31;22.75;65.73
68701;DHT22;55682;51.114;5.882;2023-06-22T04:02:57;22.77;65.66
68701;DHT22;55682;51.114;5.882;2023-06-22T04:05:23;22.72;65.65
68701;DHT22;55682;51.114;5.882;2023-06-22T04:07:49;22.68;65.81
68701;DHT22;55682;51.114;5.882;2023-06-22T04:10:15;22.65;65.84
68701;DHT22;55682;51.114;5.882;2023-06-22T04:12:41;22.55;66.17
68701;DHT22;55682;51.114;5.882;2023-06-22T04:15:07;22.44;66.39
68701;DHT22;55682;51.114;5.882;2023-06-22T04:17:33;22.40;66.63
68701;DHT22;55682;51.114;5.882;2023-06-22T04:19:58;22.37;66.81
68701;DHT22;55682;51.114;5.882;2023-06-22T04:22:24;22.28;67.04
68701;DHT22;55682;51.114;5.882;2023-06-22T04:24:50;22.27;67.33
68701;DHT22;55682;51.114;5.882;2023-06-22T04:27:17;22.29;67.38
68701;DHT22;55682;51.114;5.882;2023-06-22T04:29:44;22.36;67.33
68701;DHT22;55682;51.114;5.882;2023-06-22T04:32:17;22.41;67.14
68701;DHT22;55682;51.114;5.882;2023-06-22T04:34:43;22.48;67.09
68701;DHT22;55682;51.114;5.882;2023-06-22T04:37:09;22.56;66.85
68701;DHT22;55682;51.114;5.882;2023-06-22T04:39:42;22.67;66.44
68701;DHT22;55682;51.114;5.882;2023-06-22T04:42:08;22.76;66.14
68701;DHT22;55682;51.114;5.882;2023-06-22T04:44:34;22.82;65.90
68701;DHT22;55682;51.114;5.882;2023-06-22T04:47:01;22.86;65.75
68701;DHT22;55682;51.114;5.882;2023-06-22T04:49:29;22.83;65.72
68701;DHT22;55682;51.114;5.882;2023-06-22T04:51:59;22.78;65.82
68701;DHT22;55682;51.114;5.882;2023-06-22T04:54:25;22.70;66.01
68701;DHT22;55682;51.114;5.882;2023-06-22T04:56:51;22.73;66.03
68701;DHT22;55682;51.114;5.882;2023-06-22T04:59:31;22.72;66.08
68701;DHT22;55682;51.114;5.882;2023-06-22T05:01:59;22.78;65.95
68701;DHT22;55682;51.114;5.882;2023-06-22T05:04:26;22.80;65.86
68701;DHT22;55682;51.114;5.882;2023-06-22T05:06:53;22.78;65.89
68701;DHT22;55682;51.114;5.882;2023-06-22T05:09:21;22.78;65.87
68701;DHT22;55682;51.114;5.882;2023-06-22T05:11:47;22.78;65.92
68701;DHT22;55682;51.114;5.882;2023-06-22T05:14:13;22.83;65.85
68701;DHT22;55682;51.114;5.882;2023-06-22T05:16:41;22.76;66.17
68701;DHT22;55682;51.114;5.882;2023-06-22T05:19:07;22.72;66.35
68701;DHT22;55682;51.114;5.882;2023-06-22T05:21:33;22.76;66.42
68701;DHT22;55682;51.114;5.882;2023-06-22T05:23:58;22.79;66.30
68701;DHT22;55682;51.114;5.882;2023-06-22T05:26:30;22.88;66.11
68701;DHT22;55682;51.114;5.882;2023-06-22T05:28:57;22.99;65.78
68701;DHT22;55682;51.114;5.882;2023-06-22T05:31:23;23.08;65.40
68701;DHT22;55682;51.114;5.882;2023-06-22T05:33:51;23.10;65.29
68701;DHT22;55682;51.114;5.882;2023-06-22T05:36:17;23.09;65.46
68701;DHT22;55682;51.114;5.882;2023-06-22T05:38:45;23.21;65.11
68701;DHT22;55682;51.114;5.882;2023-06-22T05:41:11;23.32;64.53
68701;DHT22;55682;51.114;5.882;2023-06-22T05:43:37;23.40;64.34
68701;DHT22;55682;51.114;5.882;2023-06-22T05:46:04;23.43;63.89
68701;DHT22;55682;51.114;5.882;2023-06-22T05:48:29;23.37;63.98
68701;DHT22;55682;51.114;5.882;2023-06-22T05:50:55;23.31;64.24
68701;DHT22;55682;51.114;5.882;2023-06-22T05:53:21;23.21;64.49
68701;DHT22;55682;51.114;5.882;2023-06-22T05:55:47;23.23;64.65
68701;DHT22;55682;51.114;5.882;2023-06-22T05:58:13;23.20;64.88
68701;DHT22;55682;51.114;5.882;2023-06-22T06:00:40;23.23;64.63
68701;DHT22;55682;51.114;5.882;2023-06-22T06:03:07;23.23;64.69
68701;DHT22;55682;51.114;5.882;2023-06-22T06:05:34;23.25;64.60
68701;DHT22;55682;51.114;5.882;2023-06-22T06:08:05;23.23;64.66
68701;DHT22;55682;51.114;5.882;2023-06-22T06:10:32;23.29;64.69
68701;DHT22;55682;51.114;5.882;2023-06-22T06:12:58;23.46;64.27
68701;DHT22;55682;51.114;5.882;2023-06-22T06:15:24;23.59;63.69
68701;DHT22;55682;51.114;5.882;2023-06-22T06:17:52;23.74;62.82
68701;DHT22;55682;51.114;5.882;2023-06-22T06:20:22;23.75;62.63
68701;DHT22;55682;51.114;5.882;2023-06-22T06:22:49;23.79;62.44
68701;DHT22;55682;51.114;5.882;2023-06-22T06:25:15;23.81;62.47
68701;DHT22;55682;51.114;5.882;2023-06-22T06:27:49;23.80;62.06
68701;DHT22;55682;51.114;5.882;2023-06-22T06:30:16;23.71;62.18
68701;DHT22;55682;51.114;5.882;2023-06-22T06:32:44;23.62;62.59
68701;DHT22;55682;51.114;5.882;2023-06-22T06:35:12;23.68;62.82
68701;DHT22;55682;51.114;5.882;2023-06-22T06:37:41;23.77;62.73
68701;DHT22;55682;51.114;5.882;2023-06-22T06:40:09;23.79;62.46
68701;DHT22;55682;51.114;5.882;2023-06-22T06:42:48;23.74;62.67
68701;DHT22;55682;51.114;5.882;2023-06-22T06:45:20;23.70;63.69
68701;DHT22;55682;51.114;5.882;2023-06-22T06:47:49;23.67;65.46
68701;DHT22;55682;51.114;5.882;2023-06-22T06:50:16;23.69;67.05
68701;DHT22;55682;51.114;5.882;2023-06-22T06:52:42;23.74;66.33
68701;DHT22;55682;51.114;5.882;2023-06-22T06:55:09;23.82;66.94
68701;DHT22;55682;51.114;5.882;2023-06-22T06:57:38;23.82;67.43
68701;DHT22;55682;51.114;5.882;2023-06-22T07:00:11;23.97;66.23
68701;DHT22;55682;51.114;5.882;2023-06-22T07:02:43;23.97;65.83
68701;DHT22;55682;51.114;5.882;2023-06-22T07:05:11;23.99;66.08
68701;DHT22;55682;51.114;5.882;2023-06-22T07:07:37;24.05;66.12
68701;DHT22;55682;51.114;5.882;2023-06-22T07:10:05;24.16;66.97
68701;DHT22;55682;51.114;5.882;2023-06-22T07:12:31;24.33;66.20
68701;DHT22;55682;51.114;5.882;2023-06-22T07:15:07;24.48;65.33
68701;DHT22;55682;51.114;5.882;2023-06-22T07:17:34;24.62;64.79
68701;DHT22;55682;51.114;5.882;2023-06-22T07:20:01;24.80;63.56
68701;DHT22;55682;51.114;5.882;2023-06-22T07:22:26;25.07;62.62
68701;DHT22;55682;51.114;5.882;2023-06-22T07:24:52;25.59;61.75
68701;DHT22;55682;51.114;5.882;2023-06-22T07:27:18;26.30;59.93
68701;DHT22;55682;51.114;5.882;2023-06-22T07:29:46;26.94;56.84
68701;DHT22;55682;51.114;5.882;2023-06-22T07:32:12;27.16;56.04
68701;DHT22;55682;51.114;5.882;2023-06-22T07:34:38;27.12;55.54
68701;DHT22;55682;51.114;5.882;2023-06-22T07:37:04;27.13;56.16
68701;DHT22;55682;51.114;5.882;2023-06-22T07:39:30;27.04;56.36
68701;DHT22;55682;51.114;5.882;2023-06-22T07:41:56;26.90;56.62
68701;DHT22;55682;51.114;5.882;2023-06-22T07:44:21;26.89;56.97
68701;DHT22;55682;51.114;5.882;2023-06-22T07:46:47;27.13;56.34
68701;DHT22;55682;51.114;5.882;2023-06-22T07:49:13;27.30;55.69
68701;DHT22;55682;51.114;5.882;2023-06-22T07:51:39;27.26;55.45
68701;DHT22;55682;51.114;5.882;2023-06-22T07:54:04;27.11;56.07
68701;DHT22;55682;51.114;5.882;2023-06-22T07:56:30;27.10;56.10
68701;DHT22;55682;51.114;5.882;2023-06-22T07:58:56;27.19;56.02
68701;DHT22;55682;51.114;5.882;2023-06-22T08:01:23;27.82;54.57
68701;DHT22;55682;51.114;5.882;2023-06-22T08:03:50;28.75;52.21
68701;DHT22;55682;51.114;5.882;2023-06-22T08:06:16;30.24;47.76
68701;DHT22;55682;51.114;5.882;2023-06-22T08:08:42;31.39;44.51
68701;DHT22;55682;51.114;5.882;2023-06-22T08:11:09;32.17;42.64
68701;DHT22;55682;51.114;5.882;2023-06-22T08:13:35;32.59;40.25
68701;DHT22;55682;51.114;5.882;2023-06-22T08:16:00;32.69;41.33
68701;DHT22;55682;51.114;5.882;2023-06-22T08:18:26;33.40;39.71
68701;DHT22;55682;51.114;5.882;2023-06-22T08:20:52;33.59;38.57
68701;DHT22;55682;51.114;5.882;2023-06-22T08:23:18;33.60;37.12
68701;DHT22;55682;51.114;5.882;2023-06-22T08:25:44;33.60;38.34
68701;DHT22;55682;51.114;5.882;2023-06-22T08:28:09;33.31;37.42
68701;DHT22;55682;51.114;5.882;2023-06-22T08:30:35;31.25;42.63
68701;DHT22;55682;51.114;5.882;2023-06-22T08:33:01;30.49;44.54
68701;DHT22;55682;51.114;5.882;2023-06-22T08:35:26;30.12;45.86
68701;DHT22;55682;51.114;5.882;2023-06-22T08:37:52;30.52;45.71
68701;DHT22;55682;51.114;5.882;2023-06-22T08:40:20;30.46;44.65
68701;DHT22;55682;51.114;5.882;2023-06-22T08:42:47;30.36;46.22
68701;DHT22;55682;51.114;5.882;2023-06-22T08:45:13;31.05;44.25
68701;DHT22;55682;51.114;5.882;2023-06-22T08:47:40;31.52;43.04
68701;DHT22;55682;51.114;5.882;2023-06-22T08:50:10;31.57;42.38
68701;DHT22;55682;51.114;5.882;2023-06-22T08:52:37;31.52;42.34
68701;DHT22;55682;51.114;5.882;2023-06-22T08:55:03;31.55;42.27
68701;DHT22;55682;51.114;5.882;2023-06-22T08:57:29;31.46;42.80
68701;DHT22;55682;51.114;5.882;2023-06-22T08:59:56;30.77;44.11
68701;DHT22;55682;51.114;5.882;2023-06-22T09:02:28;29.77;46.96
68701;DHT22;55682;51.114;5.882;2023-06-22T09:04:59;29.91;47.05
68701;DHT22;55682;51.114;5.882;2023-06-22T09:07:25;29.71;47.60
68701;DHT22;55682;51.114;5.882;2023-06-22T09:09:51;29.72;47.89
68701;DHT22;55682;51.114;5.882;2023-06-22T09:12:18;29.90;47.58
68701;DHT22;55682;51.114;5.882;2023-06-22T09:14:45;30.11;47.03
68701;DHT22;55682;51.114;5.882;2023-06-22T09:17:13;30.10;47.01
68701;DHT22;55682;51.114;5.882;2023-06-22T09:19:38;30.12;46.70
68701;DHT22;55682;51.114;5.882;2023-06-22T09:22:05;30.33;46.53
68701;DHT22;55682;51.114;5.882;2023-06-22T09:24:32;30.64;45.32
68701;DHT22;55682;51.114;5.882;2023-06-22T09:26:58;30.10;46.13
68701;DHT22;55682;51.114;5.882;2023-06-22T09:29:24;29.53;48.05
68701;DHT22;55682;51.114;5.882;2023-06-22T09:31:49;29.41;48.80
68701;DHT22;55682;51.114;5.882;2023-06-22T09:34:16;29.00;49.87
68701;DHT22;55682;51.114;5.882;2023-06-22T09:36:48;28.71;50.59
68701;DHT22;55682;51.114;5.882;2023-06-22T09:39:14;28.99;49.58
68701;DHT22;55682;51.114;5.882;2023-06-22T09:41:40;29.12;49.26
68701;DHT22;55682;51.114;5.882;2023-06-22T09:44:06;29.24;48.85
68701;DHT22;55682;51.114;5.882;2023-06-22T09:46:31;29.22;48.77
68701;DHT22;55682;51.114;5.882;2023-06-22T09:48:57;29.23;48.66
68701;DHT22;55682;51.114;5.882;2023-06-22T09:51:23;28.97;49.56
68701;DHT22;55682;51.114;5.882;2023-06-22T09:53:49;28.82;50.14
68701;DHT22;55682;51.114;5.882;2023-06-22T09:56:16;28.64;50.48
68701;DHT22;55682;51.114;5.882;2023-06-22T09:58:42;28.42;50.94
68701;DHT22;55682;51.114;5.882;2023-06-22T10:01:09;28.46;51.05
68701;DHT22;55682;51.114;5.882;2023-06-22T10:03:36;28.56;50.64
68701;DHT22;55682;51.114;5.882;2023-06-22T10:06:02;28.56;50.42
68701;DHT22;55682;51.114;5.882;2023-06-22T10:08:28;28.29;50.94
68701;DHT22;55682;51.114;5.882;2023-06-22T10:10:54;28.10;51.56
68701;DHT22;55682;51.114;5.882;2023-06-22T10:13:19;27.98;52.11
68701;DHT22;55682;51.114;5.882;2023-06-22T10:15:45;28.02;52.04
68701;DHT22;55682;51.114;5.882;2023-06-22T10:18:15;27.96;52.26
68701;DHT22;55682;51.114;5.882;2023-06-22T10:20:42;27.55;53.66
68701;DHT22;55682;51.114;5.882;2023-06-22T10:23:07;27.34;54.39
68701;DHT22;55682;51.114;5.882;2023-06-22T10:25:33;27.22;55.20
68701;DHT22;55682;51.114;5.882;2023-06-22T10:27:59;27.14;56.64
68701;DHT22;55682;51.114;5.882;2023-06-22T10:30:25;27.04;58.49
68701;DHT22;55682;51.114;5.882;2023-06-22T10:32:50;26.68;59.35
68701;DHT22;55682;51.114;5.882;2023-06-22T10:35:16;26.16;60.43
68701;DHT22;55682;51.114;5.882;2023-06-22T10:37:45;25.76;62.25
68701;DHT22;55682;51.114;5.882;2023-06-22T10:40:12;25.60;64.95
68701;DHT22;55682;51.114;5.882;2023-06-22T10:42:38;25.75;66.91
68701;DHT22;55682;51.114;5.882;2023-06-22T10:45:05;25.89;66.33
68701;DHT22;55682;51.114;5.882;2023-06-22T10:47:30;25.99;65.33
68701;DHT22;55682;51.114;5.882;2023-06-22T10:49:56;25.96;65.30
68701;DHT22;55682;51.114;5.882;2023-06-22T10:52:22;25.98;65.33
68701;DHT22;55682;51.114;5.882;2023-06-22T10:54:48;26.06;64.84
68701;DHT22;55682;51.114;5.882;2023-06-22T10:57:13;26.07;64.97
68701;DHT22;55682;51.114;5.882;2023-06-22T10:59:39;26.09;65.08
68701;DHT22;55682;51.114;5.882;2023-06-22T11:02:05;26.04;65.36
68701;DHT22;55682;51.114;5.882;2023-06-22T11:04:31;26.01;65.62
68701;DHT22;55682;51.114;5.882;2023-06-22T11:06:57;25.94;66.07
68701;DHT22;55682;51.114;5.882;2023-06-22T11:09:22;25.90;66.59
68701;DHT22;55682;51.114;5.882;2023-06-22T11:11:51;25.91;66.88
68701;DHT22;55682;51.114;5.882;2023-06-22T11:14:20;25.92;67.16
68701;DHT22;55682;51.114;5.882;2023-06-22T11:16:46;26.15;67.52
68701;DHT22;55682;51.114;5.882;2023-06-22T11:19:13;26.57;66.48
68701;DHT22;55682;51.114;5.882;2023-06-22T11:21:38;27.14;66.13
68701;DHT22;55682;51.114;5.882;2023-06-22T11:24:05;28.06;64.34
68701;DHT22;55682;51.114;5.882;2023-06-22T11:26:30;29.12;61.81
68701;DHT22;55682;51.114;5.882;2023-06-22T11:28:57;30.12;58.86
68701;DHT22;55682;51.114;5.882;2023-06-22T11:31:23;30.74;55.87
68701;DHT22;55682;51.114;5.882;2023-06-22T11:33:49;30.81;54.48
68701;DHT22;55682;51.114;5.882;2023-06-22T11:36:15;30.71;55.37
68701;DHT22;55682;51.114;5.882;2023-06-22T11:38:42;30.77;55.39
68701;DHT22;55682;51.114;5.882;2023-06-22T11:41:08;30.90;54.98
68701;DHT22;55682;51.114;5.882;2023-06-22T11:43:35;31.01;54.72
68701;DHT22;55682;51.114;5.882;2023-06-22T11:46:02;30.99;54.48
68701;DHT22;55682;51.114;5.882;2023-06-22T11:48:28;30.92;54.83
68701;DHT22;55682;51.114;5.882;2023-06-22T11:50:54;30.93;54.13
68701;DHT22;55682;51.114;5.882;2023-06-22T11:53:25;30.80;54.03
68701;DHT22;55682;51.114;5.882;2023-06-22T11:55:51;30.56;54.41
68701;DHT22;55682;51.114;5.882;2023-06-22T11:58:19;30.35;54.40
68701;DHT22;55682;51.114;5.882;2023-06-22T12:00:45;29.95;54.26
68701;DHT22;55682;51.114;5.882;2023-06-22T12:03:11;29.58;55.45
68701;DHT22;55682;51.114;5.882;2023-06-22T12:05:38;29.35;55.45
68701;DHT22;55682;51.114;5.882;2023-06-22T12:08:04;29.09;56.03
68701;DHT22;55682;51.114;5.882;2023-06-22T12:10:30;28.76;57.37
68701;DHT22;55682;51.114;5.882;2023-06-22T12:12:55;28.58;58.09
68701;DHT22;55682;51.114;5.882;2023-06-22T12:15:23;28.34;57.67
68701;DHT22;55682;51.114;5.882;2023-06-22T12:17:49;28.03;58.53
68701;DHT22;55682;51.114;5.882;2023-06-22T12:20:15;27.68;58.94
68701;DHT22;55682;51.114;5.882;2023-06-22T12:22:41;27.39;60.20
68701;DHT22;55682;51.114;5.882;2023-06-22T12:25:07;27.21;60.67
68701;DHT22;55682;51.114;5.882;2023-06-22T12:27:34;27.06;60.87
68701;DHT22;55682;51.114;5.882;2023-06-22T12:30:00;27.04;61.05
68701;DHT22;55682;51.114;5.882;2023-06-22T12:32:26;26.93;61.94
68701;DHT22;55682;51.114;5.882;2023-06-22T12:34:51;26.91;62.86
68701;DHT22;55682;51.114;5.882;2023-06-22T12:37:17;26.86;63.15
68701;DHT22;55682;51.114;5.882;2023-06-22T12:39:43;26.87;62.96
68701;DHT22;55682;51.114;5.882;2023-06-22T12:42:09;26.85;62.76
68701;DHT22;55682;51.114;5.882;2023-06-22T12:44:38;26.94;63.03
68701;DHT22;55682;51.114;5.882;2023-06-22T12:47:04;27.11;61.57
68701;DHT22;55682;51.114;5.882;2023-06-22T12:49:30;27.15;61.66
68701;DHT22;55682;51.114;5.882;2023-06-22T12:51:55;27.26;61.15
68701;DHT22;55682;51.114;5.882;2023-06-22T12:54:21;27.31;61.09
68701;DHT22;55682;51.114;5.882;2023-06-22T12:56:47;27.25;60.79
68701;DHT22;55682;51.114;5.882;2023-06-22T12:59:13;27.09;60.49
68701;DHT22;55682;51.114;5.882;2023-06-22T13:01:38;26.99;60.67
68701;DHT22;55682;51.114;5.882;2023-06-22T13:04:04;26.87;60.86
68701;DHT22;55682;51.114;5.882;2023-06-22T13:06:30;26.67;61.28
68701;DHT22;55682;51.114;5.882;2023-06-22T13:08:56;26.42;62.12
68701;DHT22;55682;51.114;5.882;2023-06-22T13:11:22;26.24;62.51
68701;DHT22;55682;51.114;5.882;2023-06-22T13:13:47;25.96;63.15
68701;DHT22;55682;51.114;5.882;2023-06-22T13:16:13;25.79;63.66
68701;DHT22;55682;51.114;5.882;2023-06-22T13:18:38;25.63;64.52
68701;DHT22;55682;51.114;5.882;2023-06-22T13:21:05;25.63;64.92
68701;DHT22;55682;51.114;5.882;2023-06-22T13:23:31;25.72;64.85
68701;DHT22;55682;51.114;5.882;2023-06-22T13:25:58;25.75;64.85
68701;DHT22;55682;51.114;5.882;2023-06-22T13:28:23;25.76;64.81
68701;DHT22;55682;51.114;5.882;2023-06-22T13:30:49;25.83;64.34
68701;DHT22;55682;51.114;5.882;2023-06-22T13:33:15;25.81;64.06
68701;DHT22;55682;51.114;5.882;2023-06-22T13:35:41;25.68;64.79
68701;DHT22;55682;51.114;5.882;2023-06-22T13:38:08;25.60;64.94
68701;DHT22;55682;51.114;5.882;2023-06-22T13:40:35;25.51;64.98
68701;DHT22;55682;51.114;5.882;2023-06-22T13:43:00;25.35;65.69
68701;DHT22;55682;51.114;5.882;2023-06-22T13:45:26;25.25;66.07
68701;DHT22;55682;51.114;5.882;2023-06-22T13:47:52;25.18;66.28
68701;DHT22;55682;51.114;5.882;2023-06-22T13:50:19;25.03;66.50
68701;DHT22;55682;51.114;5.882;2023-06-22T13:52:45;24.84;67.46
68701;DHT22;55682;51.114;5.882;2023-06-22T13:55:10;24.74;67.95
68701;DHT22;55682;51.114;5.882;2023-06-22T13:57:36;24.66;68.20
68701;DHT22;55682;51.114;5.882;2023-06-22T14:00:04;24.66;68.55
68701;DHT22;55682;51.114;5.882;2023-06-22T14:02:37;24.58;68.83
68701;DHT22;55682;51.114;5.882;2023-06-22T14:05:02;24.54;69.06
68701;DHT22;55682;51.114;5.882;2023-06-22T14:07:28;24.49;69.08
68701;DHT22;55682;51.114;5.882;2023-06-22T14:09:54;24.34;69.58
68701;DHT22;55682;51.114;5.882;2023-06-22T14:12:19;24.30;70.02
68701;DHT22;55682;51.114;5.882;2023-06-22T14:14:45;24.24;70.24
68701;DHT22;55682;51.114;5.882;2023-06-22T14:17:12;24.24;70.10
68701;DHT22;55682;51.114;5.882;2023-06-22T14:19:39;24.16;70.08
68701;DHT22;55682;51.114;5.882;2023-06-22T14:22:05;24.16;69.96
68701;DHT22;55682;51.114;5.882;2023-06-22T14:24:30;24.01;70.92
68701;DHT22;55682;51.114;5.882;2023-06-22T14:26:56;23.90;71.47
68701;DHT22;55682;51.114;5.882;2023-06-22T14:29:22;23.79;72.18
68701;DHT22;55682;51.114;5.882;2023-06-22T14:31:48;23.69;72.60
68701;DHT22;55682;51.114;5.882;2023-06-22T14:34:15;23.64;73.10
68701;DHT22;55682;51.114;5.882;2023-06-22T14:36:41;23.49;73.21
68701;DHT22;55682;51.114;5.882;2023-06-22T14:39:09;23.41;73.63
68701;DHT22;55682;51.114;5.882;2023-06-22T14:41:34;23.25;74.31
68701;DHT22;55682;51.114;5.882;2023-06-22T14:44:00;23.22;74.59
68701;DHT22;55682;51.114;5.882;2023-06-22T14:46:27;23.10;75.25
68701;DHT22;55682;51.114;5.882;2023-06-22T14:48:52;23.06;75.74
68701;DHT22;55682;51.114;5.882;2023-06-22T14:51:18;23.02;76.26
68701;DHT22;55682;51.114;5.882;2023-06-22T14:53:45;23.08;76.36
68701;DHT22;55682;51.114;5.882;2023-06-22T14:56:12;22.98;77.07
68701;DHT22;55682;51.114;5.882;2023-06-22T14:58:40;22.93;77.42
68701;DHT22;55682;51.114;5.882;2023-06-22T15:01:06;22.90;77.51
68701;DHT22;55682;51.114;5.882;2023-06-22T15:03:35;22.84;77.79
68701;DHT22;55682;51.114;5.882;2023-06-22T15:06:02;22.77;78.44
68701;DHT22;55682;51.114;5.882;2023-06-22T15:08:28;22.68;78.88
68701;DHT22;55682;51.114;5.882;2023-06-22T15:10:54;22.58;79.53
68701;DHT22;55682;51.114;5.882;2023-06-22T15:13:20;22.54;79.81
68701;DHT22;55682;51.114;5.882;2023-06-22T15:15:46;22.44;80.05
68701;DHT22;55682;51.114;5.882;2023-06-22T15:18:14;22.44;80.07
68701;DHT22;55682;51.114;5.882;2023-06-22T15:20:40;22.38;80.47
68701;DHT22;55682;51.114;5.882;2023-06-22T15:23:07;22.32;80.86
68701;DHT22;55682;51.114;5.882;2023-06-22T15:25:34;22.27;80.81
68701;DHT22;55682;51.114;5.882;2023-06-22T15:27:59;22.24;80.84
68701;DHT22;55682;51.114;5.882;2023-06-22T15:30:25;22.14;81.01
68701;DHT22;55682;51.114;5.882;2023-06-22T15:32:51;22.04;81.05
68701;DHT22;55682;51.114;5.882;2023-06-22T15:35:16;21.98;81.32
68701;DHT22;55682;51.114;5.882;2023-06-22T15:37:44;21.93;81.42